Time;durP1;ratioP1;P1;durP2;ratioP2;P2;SDS_P1;SDS_P2;PMS_P1;PMS_P2;Temp;Humidity;BMP_temperature;BMP_pressure;BME280_temperature;BME280_humidity;BME280_pressure;Samples;Min_cycle;Max_cycle;Signal;HPM_P1;HPM_P2
2022/04/01 00:01:26;;;;;;;5.50;2.53;;;5.10;99.90;;;;;;6279528;22;19902;-86
2022/04/01 00:03:59;;;;;;;5.65;2.88;;;5.00;99.90;;;;;;6306321;22;20049;-86
2022/04/01 00:06:25;;;;;;;7.97;2.97;;;4.90;99.90;;;;;;6281689;22;20834;-86
2022/04/01 00:08:57;;;;;;;6.47;2.53;;;5.10;99.90;;;;;;6282773;22;20021;-86
2022/04/01 00:11:23;;;;;;;7.85;3.15;;;5.00;99.90;;;;;;6311192;22;19999;-86
2022/04/01 00:14:10;;;;;;;7.10;2.70;;;5.10;99.90;;;;;;6284031;22;20015;-86
2022/04/01 00:16:47;;;;;;;7.03;2.83;;;5.00;99.90;;;;;;6285014;22;20011;-87
2022/04/01 00:19:24;;;;;;;6.77;2.73;;;4.90;99.90;;;;;;6285117;22;20007;-86
2022/04/01 00:22:07;;;;;;;;;;;;;;;;;;;;;
2022/04/01 00:24:38;;;;;;;6.97;3.53;;;4.90;99.90;;;;;;6310762;22;20082;-86
2022/04/01 00:27:16;;;;;;;8.23;3.35;;;4.90;99.90;;;;;;6283596;22;20082;-87
2022/04/01 00:29:48;;;;;;;10.30;3.53;;;5.00;99.90;;;;;;6284933;22;20006;-87
2022/04/01 00:32:25;;;;;;;9.93;3.47;;;5.00;99.90;;;;;;6284734;22;20011;-86
2022/04/01 00:35:00;;;;;;;7.77;3.27;;;5.00;99.90;;;;;;6284352;22;20007;-87
2022/04/01 00:37:46;;;;;;;6.53;3.30;;;5.00;99.90;;;;;;6285144;22;19999;-86
2022/04/01 00:40:37;;;;;;;6.20;3.07;;;5.00;99.90;;;;;;6308152;22;20074;-86
2022/04/01 00:48:49;;;;;;;8.27;3.23;;;5.00;99.90;;;;;;6352362;22;20050;-86
2022/04/01 00:51:27;;;;;;;9.57;3.97;;;5.10;99.90;;;;;;6349736;22;20066;-86
2022/04/01 00:54:03;;;;;;;;;;;;;;;;;;;;;
2022/04/01 00:56:43;;;;;;;7.00;3.07;;;5.10;99.90;;;;;;6345737;22;20033;-87
2022/04/01 00:59:10;;;;;;;10.33;3.33;;;5.00;99.90;;;;;;6317144;22;20006;-87
2022/04/01 01:01:45;;;;;;;7.40;2.70;;;5.00;99.90;;;;;;6317836;22;20010;-85
2022/04/01 01:04:20;;;;;;;8.57;3.50;;;4.90;99.90;;;;;;6320029;22;20039;-86
2022/04/01 01:07:00;;;;;;;6.40;2.50;;;4.80;99.90;;;;;;6321438;22;20005;-86
2022/04/01 01:09:32;;;;;;;7.03;3.23;;;4.80;99.90;;;;;;6323828;22;19999;-86
2022/04/01 01:18:40;;;;;;;7.43;2.97;;;4.70;99.90;;;;;;6325558;22;20003;-87
2022/04/01 01:21:32;;;;;;;8.00;3.20;;;4.70;99.90;;;;;;6313136;22;20038;-84
2022/04/01 01:27:13;;;;;;;5.40;2.03;;;4.60;99.90;;;;;;6342278;22;20346;-85
2022/04/01 01:29:52;;;;;;;7.20;2.80;;;4.50;99.90;;;;;;6316533;22;19994;-86
2022/04/01 01:32:23;;;;;;;8.93;3.00;;;4.60;99.90;;;;;;6343025;22;20001;-85
2022/04/01 01:34:56;;;;;;;7.55;3.20;;;4.60;99.90;;;;;;6341662;22;20043;-85
2022/04/01 01:37:30;;;;;;;6.47;2.70;;;4.50;99.90;;;;;;6341874;22;20111;-86
2022/04/01 01:40:24;;;;;;;6.93;2.87;;;4.50;99.90;;;;;;6315666;22;20082;-85
2022/04/01 01:43:11;;;;;;;4.67;2.20;;;4.60;99.90;;;;;;6342749;22;20048;-85
2022/04/01 01:45:37;;;;;;;7.40;3.17;;;4.40;99.90;;;;;;6311025;22;20007;-85
2022/04/01 01:48:09;;;;;;;10.03;3.17;;;4.50;99.90;;;;;;6313351;22;19999;-85
2022/04/01 01:56:26;;;;;;;7.33;2.80;;;4.50;99.90;;;;;;6341348;22;20064;-85
2022/04/01 01:59:00;;;;;;;5.90;2.53;;;4.50;99.90;;;;;;6314155;22;20045;-85
2022/04/01 02:01:32;;;;;;;8.20;3.50;;;4.50;99.90;;;;;;6314925;22;20024;-84
2022/04/01 02:04:04;;;;;;;6.20;2.63;;;4.50;99.90;;;;;;6313082;22;19998;-85
2022/04/01 02:06:39;;;;;;;8.13;3.03;;;4.40;99.90;;;;;;6341503;22;19999;-86
2022/04/01 02:09:24;;;;;;;8.03;3.17;;;4.50;99.90;;;;;;6341845;22;20002;-85
2022/04/01 02:11:56;;;;;;;7.63;3.07;;;4.50;99.90;;;;;;6314263;22;20007;-84
2022/04/01 02:21:10;;;;;;;7.47;3.13;;;4.50;99.90;;;;;;6331761;22;20002;-85
2022/04/01 02:23:43;;;;;;;8.87;3.27;;;4.50;99.90;;;;;;6296771;22;20003;-83
2022/04/01 02:29:26;;;;;;;7.33;3.27;;;4.40;99.90;;;;;;6273960;22;20348;-84
2022/04/01 02:31:54;;;;;;;8.83;3.40;;;4.50;99.90;;;;;;6317917;22;20002;-83
2022/04/01 02:34:40;;;;;;;6.50;2.43;;;4.40;99.90;;;;;;6342390;22;20437;-83
2022/04/01 02:37:07;;;;;;;8.53;3.33;;;4.40;99.90;;;;;;6315307;22;19998;-83
2022/04/01 02:42:46;;;;;;;9.67;3.67;;;4.30;99.90;;;;;;6245031;23;20008;-84
2022/04/01 02:45:13;;;;;;;9.40;3.53;;;4.30;99.90;;;;;;6310777;22;20056;-85
2022/04/01 02:47:44;;;;;;;9.27;3.90;;;4.40;99.90;;;;;;6311883;22;20005;-85
2022/04/01 02:50:10;;;;;;;8.05;3.83;;;4.30;99.90;;;;;;6339451;22;19999;-85
2022/04/01 02:52:41;;;;;;;8.00;3.77;;;4.30;99.90;;;;;;6311956;22;20068;-84
2022/04/01 02:55:18;;;;;;;7.40;3.53;;;4.30;99.90;;;;;;6338644;22;20030;-84
2022/04/01 02:58:07;;;;;;;8.17;3.60;;;4.30;99.90;;;;;;6312153;22;20064;-84
2022/04/01 03:00:45;;;;;;;11.27;4.07;;;4.40;99.90;;;;;;6311599;22;20453;-85
2022/04/01 03:03:17;;;;;;;9.63;4.20;;;4.40;99.90;;;;;;6311173;22;20003;-84
2022/04/01 03:05:49;;;;;;;9.77;4.43;;;4.40;99.90;;;;;;6310663;22;20136;-84
2022/04/01 03:08:20;;;;;;;7.82;3.65;;;4.40;99.90;;;;;;6311297;22;20958;-85
2022/04/01 03:10:48;;;;;;;11.00;4.40;;;4.40;99.90;;;;;;6310230;22;19995;-85
2022/04/01 03:13:15;;;;;;;11.77;4.87;;;4.30;99.90;;;;;;6337588;22;20027;-84
2022/04/01 03:15:47;;;;;;;9.53;4.30;;;4.40;99.90;;;;;;6315162;22;20419;-84
2022/04/01 03:18:13;;;;;;;;;;;4.40;99.90;;;;;;6315430;22;20011;-83
2022/04/01 03:21:08;;;;;;;10.67;3.97;;;4.40;99.90;;;;;;6342481;22;19906;-85
2022/04/01 03:23:41;;;;;;;11.33;5.30;;;4.40;99.90;;;;;;6310741;22;20006;-85
2022/04/01 03:26:27;;;;;;;11.30;4.27;;;4.40;99.90;;;;;;6315763;22;20003;-85
2022/04/01 03:29:03;;;;;;;12.43;5.20;;;4.30;99.90;;;;;;6315668;22;20010;-85
2022/04/01 03:31:32;;;;;;;10.50;4.80;;;4.40;99.90;;;;;;6316130;22;20093;-87
2022/04/01 03:34:01;;;;;;;8.07;4.00;;;4.30;99.90;;;;;;6339954;22;20003;-85
2022/04/01 03:36:27;;;;;;;9.60;3.80;;;4.30;99.90;;;;;;6314322;22;20006;-85
2022/04/01 03:38:58;;;;;;;8.80;3.63;;;4.30;99.90;;;;;;6314346;22;20007;-85
2022/04/01 03:41:42;;;;;;;11.23;4.17;;;4.30;99.90;;;;;;6313593;22;20019;-85
2022/04/01 03:44:24;;;;;;;11.10;4.40;;;4.20;99.90;;;;;;6313695;22;20236;-85
2022/04/01 03:47:10;;;;;;;8.05;3.83;;;4.30;99.90;;;;;;6315185;22;20006;-85
2022/04/01 03:50:09;;;;;;;13.20;4.90;;;4.30;99.90;;;;;;6343115;22;19998;-84
2022/04/01 03:52:43;;;;;;;10.17;4.03;;;4.30;99.90;;;;;;6314920;22;20003;-84
2022/04/01 03:55:15;;;;;;;10.77;4.27;;;4.20;99.90;;;;;;6314471;22;19999;-85
2022/04/01 03:58:04;;;;;;;8.90;3.63;;;4.20;99.90;;;;;;6342735;22;19992;-85
2022/04/01 04:00:39;;;;;;;10.13;4.00;;;4.20;99.90;;;;;;6313974;22;20022;-85
2022/04/01 04:03:12;;;;;;;7.57;3.43;;;4.30;99.90;;;;;;6315711;22;19999;-84
2022/04/01 04:05:41;;;;;;;7.83;3.37;;;4.20;99.90;;;;;;6314450;22;20592;-86
2022/04/01 04:08:10;;;;;;;9.13;4.30;;;4.20;99.90;;;;;;6314083;22;20487;-84
2022/04/01 04:10:42;;;;;;;8.73;3.67;;;4.20;99.90;;;;;;6311593;22;20007;-85
2022/04/01 04:13:18;;;;;;;8.98;3.75;;;4.10;99.90;;;;;;6312209;22;20003;-86
2022/04/01 04:16:09;;;;;;;7.50;3.37;;;4.20;99.90;;;;;;6313766;22;20007;-83
2022/04/01 04:18:47;;;;;;;8.07;3.57;;;4.20;99.90;;;;;;6342382;22;20022;-86
2022/04/01 04:21:29;;;;;;;9.67;3.70;;;4.40;99.90;;;;;;6314843;22;20034;-85
2022/04/01 04:24:01;;;;;;;9.77;3.80;;;4.30;99.90;;;;;;6336733;22;20001;-85
2022/04/01 04:26:49;;;;;;;6.00;2.60;;;4.30;99.90;;;;;;6313830;22;20003;-85
2022/04/01 04:29:17;;;;;;;7.63;3.20;;;4.20;99.90;;;;;;6313484;22;20010;-84
2022/04/01 04:32:04;;;;;;;7.53;2.87;;;4.30;99.90;;;;;;6313570;22;20014;-85
2022/04/01 04:34:44;;;;;;;10.77;3.73;;;4.20;99.90;;;;;;6311350;22;20006;-85
2022/04/01 04:37:15;;;;;;;8.73;3.47;;;4.30;99.90;;;;;;6311107;22;20013;-85
2022/04/01 04:39:44;;;;;;;8.53;3.53;;;4.20;99.90;;;;;;6308786;22;20007;-85
2022/04/01 04:42:16;;;;;;;8.20;3.20;;;4.20;99.90;;;;;;6310115;22;20094;-85
2022/04/01 04:44:45;;;;;;;7.53;2.95;;;4.10;99.90;;;;;;6309246;22;20412;-84
2022/04/01 04:47:12;;;;;;;5.60;2.40;;;4.20;99.90;;;;;;6337468;22;19994;-85
2022/04/01 04:49:42;;;;;;;6.93;2.63;;;4.20;99.90;;;;;;6338328;22;19995;-84
2022/04/01 04:52:08;;;;;;;7.20;3.20;;;4.10;99.90;;;;;;6308731;22;20003;-85
2022/04/01 04:54:40;;;;;;;6.90;2.70;;;4.00;99.90;;;;;;6337043;22;20002;-85
2022/04/01 05:01:29;;;;;;;6.63;2.83;;;4.00;99.90;;;;;;6329932;22;20011;-86
2022/04/01 05:04:39;;;;;;;7.70;2.97;;;3.90;99.90;;;;;;6340031;22;20060;-87
2022/04/01 05:07:46;;;;;;;8.03;2.33;;;3.90;99.90;;;;;;6341390;22;20490;-87
2022/04/01 05:11:12;;;;;;;6.87;2.60;;;3.80;99.90;;;;;;6315439;22;20006;-83
2022/04/01 05:15:13;;;;;;;6.13;2.13;;;3.90;99.90;;;;;;6275961;22;20009;-84
2022/04/01 05:18:02;;;;;;;5.20;2.20;;;4.00;99.90;;;;;;6248129;22;20012;-86
2022/04/01 05:24:27;;;;;;;;;;;;;;;;;;;;;
2022/04/01 05:27:12;;;;;;;7.57;2.57;;;4.30;99.90;;;;;;6338725;22;20074;-86
2022/04/01 05:29:42;;;;;;;8.90;2.80;;;4.30;99.90;;;;;;6340733;22;19995;-86
2022/04/01 05:32:51;;;;;;;5.13;2.50;;;4.10;99.90;;;;;;6340002;22;20426;-87
2022/04/01 05:36:01;;;;;;;;;;;;;;;;;;;;;
2022/04/01 05:39:03;;;;;;;6.23;2.63;;;4.30;99.90;;;;;;6335861;22;20078;-87
2022/04/01 05:48:09;;;;;;;6.40;2.63;;;4.10;99.90;;;;;;6370313;22;20041;-86
2022/04/01 05:51:17;;;;;;;6.53;2.60;;;4.10;99.90;;;;;;6369619;22;20374;-86
2022/04/01 05:57:36;;;;;;;8.20;3.10;;;4.10;99.90;;;;;;6247250;23;20004;-86
2022/04/01 06:00:23;;;;;;;4.85;2.20;;;4.00;99.90;;;;;;6317421;22;20074;-85
2022/04/01 06:03:18;;;;;;;6.13;2.70;;;4.00;99.90;;;;;;6343372;22;20003;-84
2022/04/01 06:06:08;;;;;;;6.23;2.40;;;4.00;99.90;;;;;;6346581;22;20555;-86
2022/04/01 06:09:47;;;;;;;;;;;;;;;;;;;;;
2022/04/01 06:12:47;;;;;;;5.57;2.17;;;3.90;99.90;;;;;;6247892;23;20055;-88
2022/04/01 06:15:53;;;;;;;5.27;2.60;;;3.90;99.90;;;;;;6246265;22;20056;-86
2022/04/01 06:19:06;;;;;;;;;;;;;;;;;;;;;
2022/04/01 06:22:24;;;;;;;6.32;2.65;;;3.70;99.90;;;;;;6246957;23;20076;-87
2022/04/01 06:25:03;;;;;;;6.50;2.67;;;3.70;99.90;;;;;;6158309;23;20008;-86
2022/04/01 06:28:09;;;;;;;5.53;2.07;;;3.70;99.90;;;;;;6215197;22;20010;-87
2022/04/01 06:31:07;;;;;;;6.63;2.70;;;3.70;99.90;;;;;;6341093;22;20026;-86
2022/04/01 06:34:00;;;;;;;5.90;2.20;;;3.60;99.90;;;;;;6314936;22;20010;-86
2022/04/01 06:37:05;;;;;;;6.47;2.93;;;3.60;99.90;;;;;;6312364;22;20007;-86
2022/04/01 06:40:04;;;;;;;7.10;3.07;;;3.60;99.90;;;;;;6311070;22;20018;-87
2022/04/01 06:42:38;;;;;;;6.30;2.33;;;3.60;99.90;;;;;;6314097;22;20057;-86
2022/04/01 06:45:16;;;;;;;6.10;2.27;;;3.50;99.90;;;;;;6310523;22;19999;-87
2022/04/01 06:48:24;;;;;;;7.70;3.00;;;3.50;99.90;;;;;;6309626;22;20451;-86
2022/04/01 06:50:54;;;;;;;6.47;2.70;;;3.40;99.90;;;;;;6311458;22;20013;-87
2022/04/01 06:53:33;;;;;;;6.60;2.83;;;3.40;99.90;;;;;;6309836;22;20368;-87
2022/04/01 06:56:00;;;;;;;6.80;2.67;;;3.40;99.90;;;;;;6307993;22;20046;-86
2022/04/01 06:58:30;;;;;;;8.67;3.30;;;3.50;99.90;;;;;;6309178;22;20010;-87
2022/04/01 07:00:58;;;;;;;5.37;2.40;;;3.40;99.90;;;;;;6310230;22;20076;-86
2022/04/01 07:03:42;;;;;;;7.10;3.00;;;3.40;99.90;;;;;;6337345;22;20405;-87
2022/04/01 07:06:24;;;;;;;7.37;3.30;;;3.50;99.90;;;;;;6310067;22;20002;-86
2022/04/01 07:08:52;;;;;;;7.90;2.95;;;3.40;99.90;;;;;;6337435;22;19991;-86
2022/04/01 07:11:32;;;;;;;7.60;2.87;;;3.40;99.90;;;;;;6337742;22;20390;-86
2022/04/01 07:14:16;;;;;;;6.87;3.00;;;3.50;99.90;;;;;;6309687;22;20003;-86
2022/04/01 07:16:56;;;;;;;7.97;3.10;;;3.60;99.90;;;;;;6306201;22;20083;-86
2022/04/01 07:19:22;;;;;;;8.20;3.03;;;3.50;99.90;;;;;;6310095;22;20029;-86
2022/04/01 07:21:51;;;;;;;6.97;3.20;;;3.50;99.90;;;;;;6339223;22;20013;-86
2022/04/01 07:24:26;;;;;;;7.73;3.27;;;3.50;99.90;;;;;;6310343;22;20003;-86
2022/04/01 07:26:55;;;;;;;6.27;2.97;;;3.50;99.90;;;;;;6338909;22;20477;-86
2022/04/01 07:29:32;;;;;;;9.60;3.37;;;3.50;99.90;;;;;;6309953;22;20071;-86
2022/04/01 07:34:52;;;;;;;7.03;2.67;;;3.40;99.90;;;;;;6339284;22;20398;-87
2022/04/01 07:37:31;;;;;;;7.23;3.27;;;3.40;99.90;;;;;;6340304;22;19995;-86
2022/04/01 07:40:07;;;;;;;7.83;3.20;;;3.40;99.90;;;;;;6312561;22;20056;-86
2022/04/01 07:42:35;;;;;;;8.30;3.63;;;3.50;99.90;;;;;;6316610;22;20006;-86
2022/04/01 07:45:06;;;;;;;6.13;2.83;;;3.50;99.90;;;;;;6311036;22;20072;-85
2022/04/01 07:47:48;;;;;;;;;;;;;;;;;;;;;
2022/04/01 07:50:24;;;;;;;;;;;3.50;99.90;;;;;;6344532;22;20030;-85
2022/04/01 07:53:09;;;;;;;7.00;3.10;;;3.40;99.90;;;;;;6316608;22;19899;-85
2022/04/01 07:55:48;;;;;;;6.90;2.90;;;3.50;99.90;;;;;;6315447;22;20492;-85
2022/04/01 07:58:26;;;;;;;5.83;2.50;;;3.50;99.90;;;;;;6341716;22;20367;-85
2022/04/01 08:01:03;;;;;;;6.93;2.73;;;3.40;99.90;;;;;;6342862;22;19995;-86
2022/04/01 08:03:44;;;;;;;8.73;3.33;;;3.50;99.90;;;;;;6314611;22;19999;-86
2022/04/01 08:06:15;;;;;;;6.37;2.87;;;3.50;99.90;;;;;;6313592;22;20052;-86
2022/04/01 08:08:44;;;;;;;6.75;3.03;;;3.50;99.90;;;;;;6310680;22;20444;-85
2022/04/01 08:11:13;;;;;;;8.13;3.40;;;3.50;99.90;;;;;;6313173;22;20019;-86
2022/04/01 08:13:56;;;;;;;7.10;2.73;;;3.50;99.90;;;;;;6313637;22;20003;-86
2022/04/01 08:16:39;;;;;;;7.55;3.55;;;3.50;99.90;;;;;;6309023;22;20010;-85
2022/04/01 08:19:05;;;;;;;8.00;3.23;;;3.50;99.90;;;;;;6341812;22;20001;-86
2022/04/01 08:21:38;;;;;;;7.33;3.20;;;3.50;99.90;;;;;;6339979;22;20007;-86
2022/04/01 08:24:24;;;;;;;6.93;3.13;;;3.50;99.90;;;;;;6339107;22;20058;-85
2022/04/01 08:26:59;;;;;;;7.77;3.30;;;3.50;99.90;;;;;;6311858;22;20052;-86
2022/04/01 08:29:38;;;;;;;9.87;3.80;;;3.60;99.90;;;;;;6312178;22;20009;-85
2022/04/01 08:32:30;;;;;;;;;;;;;;;;;;;;;
2022/04/01 08:35:23;;;;;;;7.38;3.53;;;3.40;99.90;;;;;;6340148;22;20086;-86
2022/04/01 08:38:07;;;;;;;9.40;3.73;;;3.40;99.90;;;;;;6341130;22;20002;-86
2022/04/01 08:40:55;;;;;;;6.50;3.30;;;3.40;99.90;;;;;;6313264;22;20098;-85
2022/04/01 08:43:46;;;;;;;7.37;3.30;;;3.50;99.90;;;;;;6309261;22;20006;-86
2022/04/01 08:46:54;;;;;;;;;;;;;;;;;;;;;
2022/04/01 08:49:23;;;;;;;7.23;3.10;;;3.50;99.90;;;;;;6341460;22;20026;-86
2022/04/01 08:52:12;;;;;;;7.67;3.40;;;3.50;99.90;;;;;;6313444;22;20063;-85
2022/04/01 08:57:57;;;;;;;7.37;3.23;;;3.60;99.90;;;;;;6329649;22;20055;-85
2022/04/01 09:00:27;;;;;;;8.43;3.53;;;3.50;99.90;;;;;;6312205;22;20030;-85
2022/04/01 09:03:27;;;;;;;9.07;3.63;;;3.50;99.90;;;;;;6312908;22;20021;-86
2022/04/01 09:06:12;;;;;;;6.63;3.27;;;3.50;99.90;;;;;;6262155;22;20003;-86
2022/04/01 09:08:49;;;;;;;10.07;3.70;;;3.40;99.90;;;;;;6315303;22;20060;-86
2022/04/01 09:12:14;;;;;;;;;;;;;;;;;;;;;
2022/04/01 09:15:39;;;;;;;8.73;3.13;;;3.30;99.90;;;;;;6341609;22;20026;-87
2022/04/01 09:18:52;;;;;;;5.90;2.80;;;3.20;99.90;;;;;;6312271;22;20002;-86
2022/04/01 09:21:51;;;;;;;6.27;2.90;;;3.20;99.90;;;;;;6339103;22;20006;-86
2022/04/01 09:25:02;;;;;;;;;;;;;;;;;;;;;
2022/04/01 09:27:59;;;;;;;6.30;2.77;;;3.30;99.90;;;;;;6210468;23;20079;-87
2022/04/01 09:31:06;;;;;;;7.60;3.17;;;3.20;99.90;;;;;;6309751;22;20380;-87
2022/04/01 09:34:11;;;;;;;6.60;3.07;;;3.30;99.90;;;;;;6296617;22;20003;-86
2022/04/01 09:37:10;;;;;;;7.17;2.97;;;3.30;99.90;;;;;;6336662;22;20203;-86
2022/04/01 10:40:53;;;;;;;;;;;;;;;;;;;;;
2022/04/01 10:43:48;;;;;;;3.10;1.20;;;3.10;99.90;;;;;;6104900;23;20042;-89
2022/04/01 10:46:28;;;;;;;1.70;0.73;;;3.10;99.90;;;;;;6106607;23;20006;-89
2022/04/01 10:52:19;;;;;;;4.70;1.40;;;3.10;99.90;;;;;;6351777;22;20066;-88
2022/04/01 10:55:09;;;;;;;3.63;1.50;;;3.20;99.90;;;;;;6321544;22;20003;-88
2022/04/01 10:58:18;;;;;;;;;;;;;;;;;;;;;
2022/04/01 11:01:41;;;;;;;;;;;;;;;;;;;;;
2022/04/01 11:08:03;;;;;;;1.90;0.80;;;3.10;99.90;;;;;;6158448;23;19979;-89
2022/04/01 11:15:42;;;;;;;;;;;;;;;;;;;;;
2022/04/01 11:18:56;;;;;;;2.35;0.73;;;3.10;99.90;;;;;;6002369;23;20122;-90
2022/04/01 11:22:03;;;;;;;2.23;0.83;;;3.00;99.90;;;;;;5990164;23;20019;-89
2022/04/01 13:31:27;;;;;;;4.40;1.57;;;2.30;99.90;;;;;;6207009;23;20004;-87
2022/04/01 17:45:24;;;;;;;9.80;5.00;;;1.40;99.90;;;;;;6040898;22;6365498;-90
2022/04/01 17:48:20;;;;;;;9.40;4.90;;;1.30;99.90;;;;;;6294562;22;20004;-88
2022/04/01 17:51:01;;;;;;;9.77;5.00;;;1.30;99.90;;;;;;6274190;22;20003;-88
2022/04/01 17:53:33;;;;;;;9.33;4.73;;;1.30;99.90;;;;;;6294853;22;20015;-89
2022/04/01 17:56:11;;;;;;;9.90;4.70;;;1.10;99.90;;;;;;6296527;22;20338;-93
2022/04/01 17:59:08;;;;;;;9.67;4.17;;;1.10;99.90;;;;;;6293319;22;20018;-91
2022/04/01 18:01:46;;;;;;;9.80;4.97;;;1.00;99.90;;;;;;6258505;22;20110;-89
2022/04/01 18:06:51;;;;;;;10.10;4.63;;;1.00;99.90;;;;;;6236876;22;20024;-89
2022/04/01 18:09:27;;;;;;;10.73;5.43;;;1.00;99.90;;;;;;6292102;22;20086;-89
2022/04/01 18:12:14;;;;;;;10.47;4.83;;;1.10;99.90;;;;;;6320609;22;20003;-89
2022/04/01 18:15:07;;;;;;;14.27;5.97;;;0.90;99.90;;;;;;6299783;22;20052;-90
2022/04/01 18:17:34;;;;;;;9.40;5.00;;;1.10;99.90;;;;;;6289569;22;20027;-89
2022/04/01 18:20:07;;;;;;;10.17;5.23;;;0.90;99.90;;;;;;6262739;22;20094;-88
2022/04/01 18:22:43;;;;;;;10.40;5.47;;;1.00;99.90;;;;;;6287523;22;20072;-89
2022/04/01 18:25:42;;;;;;;10.17;5.40;;;1.10;99.90;;;;;;6264222;22;20031;-89
2022/04/01 18:48:59;;;;;;;10.83;5.13;;;0.80;99.90;;;;;;6255058;22;20023;-89
2022/04/01 18:51:56;;;;;;;;;;;;;;;;;;;;;
2022/04/01 18:54:29;;;;;;;10.07;5.10;;;0.80;99.90;;;;;;6276634;22;20003;-90
2022/04/01 18:57:35;;;;;;;11.07;5.53;;;0.80;99.90;;;;;;6288995;22;20008;-89
2022/04/01 19:00:48;;;;;;;;;;;;;;;;;;;;;
2022/04/01 19:04:09;;;;;;;11.60;6.33;;;0.80;99.90;;;;;;6289177;22;20000;-88
2022/04/01 19:07:32;;;;;;;10.73;5.43;;;0.80;99.90;;;;;;6287034;22;20083;-91
2022/04/01 19:10:58;;;;;;;10.30;4.80;;;0.80;99.90;;;;;;6128119;22;20082;-91
2022/04/01 19:57:59;;;;;;;10.57;5.57;;;0.60;99.90;;;;;;6296652;22;20023;-90
2022/04/01 20:00:34;;;;;;;8.53;4.80;;;0.70;99.90;;;;;;6286748;22;20018;-89
2022/04/01 20:03:03;;;;;;;11.70;6.20;;;0.70;99.90;;;;;;6312642;22;20003;-90
2022/04/01 20:05:30;;;;;;;11.43;6.20;;;0.60;99.90;;;;;;6311166;22;20128;-90
2022/04/01 20:07:58;;;;;;;10.73;6.07;;;0.60;99.90;;;;;;6285204;22;20007;-88
2022/04/01 20:10:30;;;;;;;10.43;5.67;;;0.60;99.90;;;;;;6287771;22;20384;-90
2022/04/01 20:13:10;;;;;;;11.18;5.82;;;0.60;99.90;;;;;;6289784;22;19996;-89
2022/04/01 20:15:36;;;;;;;10.27;6.20;;;0.50;99.90;;;;;;6317585;22;20002;-88
2022/04/01 20:18:07;;;;;;;11.27;6.10;;;0.50;99.90;;;;;;6317944;22;19999;-89
2022/04/01 20:20:41;;;;;;;12.20;6.20;;;0.60;99.90;;;;;;6290176;22;20011;-88
2022/04/01 20:23:46;;;;;;;10.90;6.07;;;0.60;99.90;;;;;;6292561;22;20010;-87
2022/04/01 20:26:21;;;;;;;8.93;5.20;;;0.60;99.90;;;;;;6292981;22;20081;-90
2022/04/01 20:28:53;;;;;;;9.47;6.07;;;0.60;99.90;;;;;;6292540;22;20026;-91
2022/04/01 20:31:35;;;;;;;;;;;;;;;;;;;;;
2022/04/01 20:34:12;;;;;;;9.95;5.38;;;0.60;99.90;;;;;;6313828;22;19926;-89
2022/04/01 20:36:59;;;;;;;12.57;6.80;;;0.70;99.90;;;;;;6292942;22;19999;-90
2022/04/01 20:39:27;;;;;;;12.10;6.30;;;0.60;99.90;;;;;;6294228;22;20000;-89
2022/04/01 20:42:05;;;;;;;11.07;5.97;;;0.60;99.90;;;;;;6321499;22;20018;-90
2022/04/01 20:45:01;;;;;;;10.20;6.03;;;0.50;99.90;;;;;;6275418;22;20023;-88
2022/04/01 20:47:55;;;;;;;9.03;5.43;;;0.60;99.90;;;;;;6263845;22;20003;-88
2022/04/01 20:50:26;;;;;;;12.33;6.57;;;0.60;99.90;;;;;;6264368;22;20004;-90
2022/04/01 20:57:26;;;;;;;10.45;5.50;;;0.50;99.90;;;;;;6145450;23;20048;-88
2022/04/01 21:11:23;;;;;;;;;;;;;;;;;;;;;
2022/04/01 22:11:35;;;;;;;;;;;;;;;;;;;;;
2022/04/01 22:15:00;;;;;;;;;;;;;;;;;;;;;
2022/04/01 22:18:08;;;;;;;10.50;5.43;;;0.40;99.90;;;;;;6332911;22;20006;-87
2022/04/01 22:24:35;;;;;;;11.20;5.07;;;0.50;99.90;;;;;;6319208;22;20007;-86
2022/04/01 22:30:56;;;;;;;12.27;5.57;;;0.40;99.90;;;;;;6325887;22;20062;-87
2022/04/01 22:43:10;;;;;;;;;;;;;;;;;;;;;
2022/04/01 22:46:02;;;;;;;;;;;;;;;;;;;;;
2022/04/01 22:49:22;;;;;;;;;;;;;;;;;;;;;
2022/04/01 22:55:55;;;;;;;7.70;4.60;;;0.50;99.90;;;;;;6004966;23;19996;-87
2022/04/01 22:58:34;;;;;;;9.87;4.03;;;0.40;99.90;;;;;;6002117;23;19996;-87
2022/04/01 23:02:03;;;;;;;;;;;;;;;;;;;;;
2022/04/01 23:05:48;;;;;;;9.20;4.43;;;0.50;99.90;;;;;;6168950;23;19997;-86
2022/04/01 23:08:09;;;;;;;10.03;4.80;;;0.40;99.90;;;;;;6161454;23;20033;-89
2022/04/01 23:10:35;;;;;;;11.03;4.60;;;0.40;99.90;;;;;;6228259;23;20003;-89
2022/04/01 23:13:19;;;;;;;9.17;4.30;;;0.50;99.90;;;;;;6256095;23;20028;-90
2022/04/01 23:15:45;;;;;;;6.83;3.93;;;0.40;99.90;;;;;;6230995;23;20083;-88
2022/04/01 23:18:14;;;;;;;8.77;4.30;;;0.40;99.90;;;;;;6230521;23;20007;-88
2022/04/01 23:20:43;;;;;;;9.50;4.33;;;0.40;99.90;;;;;;6257195;23;20128;-89
2022/04/01 23:23:09;;;;;;;8.73;4.60;;;0.30;99.90;;;;;;6259352;22;20000;-88
2022/04/01 23:25:35;;;;;;;10.07;5.17;;;0.30;99.90;;;;;;6259177;23;20342;-90
2022/04/01 23:28:00;;;;;;;12.57;5.70;;;0.40;99.90;;;;;;6233173;23;20041;-89
2022/04/01 23:30:29;;;;;;;9.20;4.33;;;0.40;99.90;;;;;;6233418;23;20644;-89
2022/04/01 23:32:57;;;;;;;9.57;3.73;;;0.30;99.90;;;;;;6231965;23;20004;-88
2022/04/01 23:35:46;;;;;;;5.80;3.23;;;0.30;99.90;;;;;;6287639;22;20030;-87
2022/04/01 23:38:43;;;;;;;10.93;5.07;;;0.30;99.90;;;;;;6290472;22;20002;-87
2022/04/01 23:41:27;;;;;;;6.53;3.50;;;0.30;99.90;;;;;;6279919;22;20008;-86
2022/04/01 23:43:53;;;;;;;7.63;4.20;;;0.30;99.90;;;;;;6280043;22;20437;-87
2022/04/01 23:46:22;;;;;;;9.27;4.47;;;0.30;99.90;;;;;;6306454;22;20009;-86
2022/04/01 23:49:06;;;;;;;10.37;4.70;;;0.30;99.90;;;;;;6307109;22;20060;-90
2022/04/01 23:51:47;;;;;;;9.23;4.53;;;0.40;99.90;;;;;;6280468;22;20007;-87
2022/04/01 23:54:16;;;;;;;7.73;3.70;;;0.40;99.90;;;;;;6279402;22;20003;-88
2022/04/01 23:56:46;;;;;;;10.67;4.43;;;0.30;99.90;;;;;;6277682;22;20028;-86
2022/04/01 23:59:17;;;;;;;9.47;4.97;;;0.50;99.90;;;;;;6279951;22;19999;-88
